Nichiryu Maru — JG5632 — position and weather

sailwx.info

Track history (hours):
 
Tides and Currents Weather Stations Pressure Air Temp Water Temp Dewpoint Dewpoint Depression Visibility Wind Speed Wind Dir Waves Ship Positions

Nichiryu Maru

Last reported at 2017-Jul-24 12:08 UTC. Time now 2017-Jul-24 18:28 UTC.
Position N 34°57' E 139°30'.

Length 158 m; draft 6.5 m.

Type: Cargo ship. MMSI: 43100939.

Date/timePositionNaut miles runAvg speedWind from/ knotsBaromVisibWave heightAir tempDewpointWater temp
2017-Jul-24 12:08N 34°57' E 139°30'216.1
2017-Jul-24 11:59N 34°58' E 139°32'816.9
2017-Jul-24 11:30N 35°04' E 139°40'816.0
2017-Jul-24 11:00N 35°10' E 139°45'611.7
2017-Jul-24 10:30N 35°16' E 139°46'510.3
2017-Jul-24 10:00N 35°19' E 139°41'1 2.3
2017-Jul-24 09:29N 35°19' E 139°39'0 0.0
2017-Jul-24 08:59N 35°19' E 139°39'0 0.0
2017-Jul-24 08:29N 35°19' E 139°39'0 0.0
2017-Jul-24 07:59N 35°19' E 139°39'0 0.0
2017-Jul-24 07:29N 35°19' E 139°39'0 0.0
2017-Jul-24 06:59N 35°19' E 139°39'0 0.0
2017-Jul-24 06:26N 35°19' E 139°39'0 0.0
2017-Jul-24 05:59N 35°19' E 139°39'0 0.0
2017-Jul-24 05:26N 35°19' E 139°39'0 0.0
2017-Jul-24 04:59N 35°19' E 139°39'0 0.0
2017-Jul-24 04:29N 35°19' E 139°39'0 0.0
2017-Jul-24 03:59N 35°19' E 139°39'0 0.0
2017-Jul-24 03:29N 35°19' E 139°39'0 0.0
2017-Jul-24 02:59N 35°19' E 139°39'0 0.0
2017-Jul-24 02:26N 35°19' E 139°39'0 0.0
2017-Jul-24 01:59N 35°19' E 139°39'0 0.0
2017-Jul-24 01:29N 35°19' E 139°39'0 0.0
2017-Jul-24 00:59N 35°19' E 139°39'0 0.0
2017-Jul-24 00:29N 35°19' E 139°39'0 0.0
2017-Jul-23 23:59N 35°19' E 139°39'0 0.0
2017-Jul-23 23:29N 35°19' E 139°39'1 1.2
2017-Jul-23 23:01N 35°19' E 139°40'510.3
2017-Jul-23 22:31N 35°17' E 139°45'612.4
2017-Jul-23 22:00N 35°11' E 139°46'815.6
2017-Jul-23 21:30N 35°03' E 139°45'918.2
2017-Jul-23 21:00N 34°56' E 139°37'713.0
2017-Jul-23 20:30N 34°51' E 139°32'4 7.8
2017-Jul-23 19:58N 34°50' E 139°27'  
2017-Jul-21 08:18N 34°36' E 134°54'620.9
2017-Jul-21 08:01N 34°37' E 135°02'917.5
2017-Jul-21 07:31N 34°36' E 135°12'5 9.3
2017-Jul-21 07:00N 34°41' E 135°14'1 1.1
2017-Jul-21 06:30N 34°41' E 135°13'0 0.0
2017-Jul-21 06:00N 34°41' E 135°13'0 0.0
2017-Jul-21 05:30N 34°41' E 135°13'0 0.0
2017-Jul-21 04:54N 34°41' E 135°13'0 0.0
2017-Jul-21 04:24N 34°41' E 135°13'0 0.3
2017-Jul-21 04:01N 34°41' E 135°14'5 9.4
2017-Jul-21 03:30N 34°37' E 135°17'917.9
2017-Jul-21 03:00N 34°30' E 135°10'1019.2
2017-Jul-21 02:30N 34°22' E 135°03'816.8
2017-Jul-21 02:01N 34°14' E 135°00'1019.5
2017-Jul-21 01:30N 34°04' E 135°02'22316.2
2017-Jul-20 11:44N 34°53' E 139°26'519.2
2017-Jul-20 11:28N 34°57' E 139°30'919.2
2017-Jul-20 11:00N 35°03' E 139°39'918.4
2017-Jul-20 10:30N 35°10' E 139°45'612.9
2017-Jul-20 10:00N 35°17' E 139°45'510.6
2017-Jul-20 09:30N 35°19' E 139°39'0 0.0
2017-Jul-20 09:00N 35°19' E 139°39'0 0.0
2017-Jul-20 08:30N 35°19' E 139°39'0 0.0
2017-Jul-20 08:00N 35°19' E 139°39'0 0.0
2017-Jul-20 07:30N 35°19' E 139°39'0 0.0
2017-Jul-20 07:00N 35°19' E 139°39'0 0.0
2017-Jul-20 06:27N 35°19' E 139°39'0 0.0
2017-Jul-20 05:57N 35°19' E 139°39'0 0.0
2017-Jul-20 05:30N 35°19' E 139°39'0 0.0
2017-Jul-20 05:00N 35°19' E 139°39'0 0.0
2017-Jul-20 04:27N 35°19' E 139°39'0 0.0
2017-Jul-20 04:00N 35°19' E 139°39'0 0.2
2017-Jul-20 03:30N 35°19' E 139°39'4 8.8
2017-Jul-20 03:01N 35°18' E 139°44'612.1
2017-Jul-20 02:30N 35°12' E 139°47'917.0
2017-Jul-20 02:00N 35°04' E 139°44'917.8
2017-Jul-20 01:30N 34°58' E 139°37'  
2017-Jul-17 11:38N 34°52' E 139°22'316.8
2017-Jul-17 11:28N 34°54' E 139°24'816.7
2017-Jul-17 11:00N 34°59' E 139°32'917.9
2017-Jul-17 10:30N 35°04' E 139°40'917.3
2017-Jul-17 10:00N 35°12' E 139°46'612.1
2017-Jul-17 09:31N 35°18' E 139°44'5 9.2
2017-Jul-17 09:00N 35°19' E 139°39'0 0.0
2017-Jul-17 08:29N 35°19' E 139°39'0 0.0
2017-Jul-17 07:59N 35°19' E 139°39'0 0.0
2017-Jul-17 07:29N 35°19' E 139°39'0 0.0
2017-Jul-17 06:59N 35°19' E 139°39'0 0.0
2017-Jul-17 06:29N 35°19' E 139°39'0 0.0
2017-Jul-17 05:59N 35°19' E 139°39'0 0.0
2017-Jul-17 05:29N 35°19' E 139°39'0 0.0
2017-Jul-17 04:59N 35°19' E 139°39'0 0.0
2017-Jul-17 04:29N 35°19' E 139°39'0 0.0
2017-Jul-17 03:59N 35°19' E 139°39'0 0.0
2017-Jul-17 03:29N 35°19' E 139°39'0 0.0
2017-Jul-17 02:53N 35°19' E 139°39'0 0.0
2017-Jul-17 02:29N 35°19' E 139°39'0 0.0
2017-Jul-17 01:59N 35°19' E 139°39'0 0.0
2017-Jul-17 01:29N 35°19' E 139°39'0 0.0
2017-Jul-17 00:59N 35°19' E 139°39'0 0.0
2017-Jul-17 00:29N 35°19' E 139°39'0 0.0
2017-Jul-16 23:59N 35°19' E 139°39'0 0.0
2017-Jul-16 23:29N 35°19' E 139°39'0 0.9
2017-Jul-16 23:01N 35°19' E 139°40'1 2.6
2017-Jul-16 22:28N 35°19' E 139°41'0 0.0
2017-Jul-16 21:52N 35°19' E 139°41'0 0.0
2017-Jul-16 21:28N 35°19' E 139°41'0 0.0
2017-Jul-16 20:58N 35°19' E 139°41'0 0.1
2017-Jul-16 20:25N 35°19' E 139°41'0 0.0
2017-Jul-16 19:58N 35°19' E 139°41'0 0.0
2017-Jul-16 19:28N 35°19' E 139°41'0 0.1
2017-Jul-16 18:58N 35°19' E 139°41'0 0.1
2017-Jul-16 18:28N 35°19' E 139°41'0 0.0
2017-Jul-16 17:55N 35°19' E 139°41'0 0.0
2017-Jul-16 17:28N 35°19' E 139°41'0 0.0
2017-Jul-16 16:58N 35°19' E 139°41'0 0.0
2017-Jul-16 16:28N 35°19' E 139°41'0 0.0
2017-Jul-16 15:58N 35°19' E 139°41'0 0.0
2017-Jul-16 15:28N 35°19' E 139°41'0 0.0
2017-Jul-16 14:58N 35°19' E 139°41'0 0.0
2017-Jul-16 14:28N 35°19' E 139°41'0 0.1
2017-Jul-16 13:58N 35°19' E 139°41'0 0.1
2017-Jul-16 13:25N 35°19' E 139°41'0 0.0
2017-Jul-16 12:55N 35°19' E 139°41'0 0.1
2017-Jul-16 12:28N 35°19' E 139°41'0 0.2
2017-Jul-16 12:00N 35°19' E 139°41'611.2
2017-Jul-16 11:31N 35°16' E 139°47'714.7
2017-Jul-16 11:00N 35°08' E 139°45'1019.1
2017-Jul-16 10:30N 35°00' E 139°39'  
Track history (hours):
 
Tides and Currents Weather Stations Pressure Air Temp Water Temp Dewpoint Dewpoint Depression Visibility Wind Speed Wind Dir Waves Ship Positions

Nichiryu Maru

Last reported at 2017-Jul-24 12:08 UTC. Time now 2017-Jul-24 18:28 UTC.
Position N 34°57' E 139°30'.

Length 158 m; draft 6.5 m.

Type: Cargo ship. MMSI: 43100939.

Date/timePositionNaut miles runAvg speedWind from/ knotsBaromVisibWave heightAir tempDewpointWater temp
2017-Jul-24 12:08N 34°57' E 139°30'216.1
2017-Jul-24 11:59N 34°58' E 139°32'816.9
2017-Jul-24 11:30N 35°04' E 139°40'816.0
2017-Jul-24 11:00N 35°10' E 139°45'611.7
2017-Jul-24 10:30N 35°16' E 139°46'510.3
2017-Jul-24 10:00N 35°19' E 139°41'1 2.3
2017-Jul-24 09:29N 35°19' E 139°39'0 0.0
2017-Jul-24 08:59N 35°19' E 139°39'0 0.0
2017-Jul-24 08:29N 35°19' E 139°39'0 0.0
2017-Jul-24 07:59N 35°19' E 139°39'0 0.0
2017-Jul-24 07:29N 35°19' E 139°39'0 0.0
2017-Jul-24 06:59N 35°19' E 139°39'0 0.0
2017-Jul-24 06:26N 35°19' E 139°39'0 0.0
2017-Jul-24 05:59N 35°19' E 139°39'0 0.0
2017-Jul-24 05:26N 35°19' E 139°39'0 0.0
2017-Jul-24 04:59N 35°19' E 139°39'0 0.0
2017-Jul-24 04:29N 35°19' E 139°39'0 0.0
2017-Jul-24 03:59N 35°19' E 139°39'0 0.0
2017-Jul-24 03:29N 35°19' E 139°39'0 0.0
2017-Jul-24 02:59N 35°19' E 139°39'0 0.0
2017-Jul-24 02:26N 35°19' E 139°39'0 0.0
2017-Jul-24 01:59N 35°19' E 139°39'0 0.0
2017-Jul-24 01:29N 35°19' E 139°39'0 0.0
2017-Jul-24 00:59N 35°19' E 139°39'0 0.0
2017-Jul-24 00:29N 35°19' E 139°39'0 0.0
2017-Jul-23 23:59N 35°19' E 139°39'0 0.0
2017-Jul-23 23:29N 35°19' E 139°39'1 1.2
2017-Jul-23 23:01N 35°19' E 139°40'510.3
2017-Jul-23 22:31N 35°17' E 139°45'612.4
2017-Jul-23 22:00N 35°11' E 139°46'815.6
2017-Jul-23 21:30N 35°03' E 139°45'918.2
2017-Jul-23 21:00N 34°56' E 139°37'713.0
2017-Jul-23 20:30N 34°51' E 139°32'4 7.8
2017-Jul-23 19:58N 34°50' E 139°27'  
2017-Jul-21 08:18N 34°36' E 134°54'620.9
2017-Jul-21 08:01N 34°37' E 135°02'917.5
2017-Jul-21 07:31N 34°36' E 135°12'5 9.3
2017-Jul-21 07:00N 34°41' E 135°14'1 1.1
2017-Jul-21 06:30N 34°41' E 135°13'0 0.0
2017-Jul-21 06:00N 34°41' E 135°13'0 0.0
2017-Jul-21 05:30N 34°41' E 135°13'0 0.0
2017-Jul-21 04:54N 34°41' E 135°13'0 0.0
2017-Jul-21 04:24N 34°41' E 135°13'0 0.3
2017-Jul-21 04:01N 34°41' E 135°14'5 9.4
2017-Jul-21 03:30N 34°37' E 135°17'917.9
2017-Jul-21 03:00N 34°30' E 135°10'1019.2
2017-Jul-21 02:30N 34°22' E 135°03'816.8
2017-Jul-21 02:01N 34°14' E 135°00'1019.5
2017-Jul-21 01:30N 34°04' E 135°02'22316.2
2017-Jul-20 11:44N 34°53' E 139°26'519.2
2017-Jul-20 11:28N 34°57' E 139°30'919.2
2017-Jul-20 11:00N 35°03' E 139°39'918.4
2017-Jul-20 10:30N 35°10' E 139°45'612.9
2017-Jul-20 10:00N 35°17' E 139°45'510.6
2017-Jul-20 09:30N 35°19' E 139°39'0 0.0
2017-Jul-20 09:00N 35°19' E 139°39'0 0.0
2017-Jul-20 08:30N 35°19' E 139°39'0 0.0
2017-Jul-20 08:00N 35°19' E 139°39'0 0.0
2017-Jul-20 07:30N 35°19' E 139°39'0 0.0
2017-Jul-20 07:00N 35°19' E 139°39'0 0.0
2017-Jul-20 06:27N 35°19' E 139°39'0 0.0
2017-Jul-20 05:57N 35°19' E 139°39'0 0.0
2017-Jul-20 05:30N 35°19' E 139°39'0 0.0
2017-Jul-20 05:00N 35°19' E 139°39'0 0.0
2017-Jul-20 04:27N 35°19' E 139°39'0 0.0
2017-Jul-20 04:00N 35°19' E 139°39'0 0.2
2017-Jul-20 03:30N 35°19' E 139°39'4 8.8
2017-Jul-20 03:01N 35°18' E 139°44'612.1
2017-Jul-20 02:30N 35°12' E 139°47'917.0
2017-Jul-20 02:00N 35°04' E 139°44'917.8
2017-Jul-20 01:30N 34°58' E 139°37'  
2017-Jul-17 11:38N 34°52' E 139°22'316.8
2017-Jul-17 11:28N 34°54' E 139°24'816.7
2017-Jul-17 11:00N 34°59' E 139°32'917.9
2017-Jul-17 10:30N 35°04' E 139°40'917.3
2017-Jul-17 10:00N 35°12' E 139°46'612.1
2017-Jul-17 09:31N 35°18' E 139°44'5 9.2
2017-Jul-17 09:00N 35°19' E 139°39'0 0.0
2017-Jul-17 08:29N 35°19' E 139°39'0 0.0
2017-Jul-17 07:59N 35°19' E 139°39'0 0.0
2017-Jul-17 07:29N 35°19' E 139°39'0 0.0
2017-Jul-17 06:59N 35°19' E 139°39'0 0.0
2017-Jul-17 06:29N 35°19' E 139°39'0 0.0
2017-Jul-17 05:59N 35°19' E 139°39'0 0.0
2017-Jul-17 05:29N 35°19' E 139°39'0 0.0
2017-Jul-17 04:59N 35°19' E 139°39'0 0.0
2017-Jul-17 04:29N 35°19' E 139°39'0 0.0
2017-Jul-17 03:59N 35°19' E 139°39'0 0.0
2017-Jul-17 03:29N 35°19' E 139°39'0 0.0
2017-Jul-17 02:53N 35°19' E 139°39'0 0.0
2017-Jul-17 02:29N 35°19' E 139°39'0 0.0
2017-Jul-17 01:59N 35°19' E 139°39'0 0.0
2017-Jul-17 01:29N 35°19' E 139°39'0 0.0
2017-Jul-17 00:59N 35°19' E 139°39'0 0.0
2017-Jul-17 00:29N 35°19' E 139°39'0 0.0
2017-Jul-16 23:59N 35°19' E 139°39'0 0.0
2017-Jul-16 23:29N 35°19' E 139°39'0 0.9
2017-Jul-16 23:01N 35°19' E 139°40'1 2.6
2017-Jul-16 22:28N 35°19' E 139°41'0 0.0
2017-Jul-16 21:52N 35°19' E 139°41'0 0.0
2017-Jul-16 21:28N 35°19' E 139°41'0 0.0
2017-Jul-16 20:58N 35°19' E 139°41'0 0.1
2017-Jul-16 20:25N 35°19' E 139°41'0 0.0
2017-Jul-16 19:58N 35°19' E 139°41'0 0.0
2017-Jul-16 19:28N 35°19' E 139°41'0 0.1
2017-Jul-16 18:58N 35°19' E 139°41'0 0.1
2017-Jul-16 18:28N 35°19' E 139°41'0 0.0
2017-Jul-16 17:55N 35°19' E 139°41'0 0.0
2017-Jul-16 17:28N 35°19' E 139°41'0 0.0
2017-Jul-16 16:58N 35°19' E 139°41'0 0.0
2017-Jul-16 16:28N 35°19' E 139°41'0 0.0
2017-Jul-16 15:58N 35°19' E 139°41'0 0.0
2017-Jul-16 15:28N 35°19' E 139°41'0 0.0
2017-Jul-16 14:58N 35°19' E 139°41'0 0.0
2017-Jul-16 14:28N 35°19' E 139°41'0 0.1
2017-Jul-16 13:58N 35°19' E 139°41'0 0.1
2017-Jul-16 13:25N 35°19' E 139°41'0 0.0
2017-Jul-16 12:55N 35°19' E 139°41'0 0.1
2017-Jul-16 12:28N 35°19' E 139°41'0 0.2
2017-Jul-16 12:00N 35°19' E 139°41'611.2
2017-Jul-16 11:31N 35°16' E 139°47'714.7
2017-Jul-16 11:00N 35°08' E 139°45'1019.1
2017-Jul-16 10:30N 35°00' E 139°39'  

Dump ship's entire track history